Time;durP1;ratioP1;P1;durP2;ratioP2;P2;SDS_P1;SDS_P2;PMS_P1;PMS_P2;Temp;Humidity;BMP_temperature;BMP_pressure;BME280_temperature;BME280_humidity;BME280_pressure;Samples;Min_cycle;Max_cycle;Signal;HPM_P1;HPM_P2
2023/06/11 00:00:41;;;;;;;;;31.25;26.75;;;;;-143.57;100.00;65101.44;5016610;28;45314;-54
2023/06/11 00:03:07;;;;;;;;;37.75;32.25;;;;;-143.57;100.00;65101.44;5016631;28;45275;-55
2023/06/11 00:05:32;;;;;;;;;32.50;28.25;;;;;-143.57;100.00;65101.44;5016322;28;45316;-53
2023/06/11 00:08:00;;;;;;;;;35.00;31.75;;;;;-143.57;100.00;65101.44;4998593;28;46994;-52
2023/06/11 00:10:27;;;;;;;;;31.00;30.00;;;;;-143.57;100.00;65101.44;5015615;28;45164;-52
2023/06/11 00:12:52;;;;;;;;;29.50;28.50;;;;;-143.57;100.00;65101.44;5016396;28;45374;-54
2023/06/11 00:15:17;;;;;;;;;33.50;28.25;;;;;-143.57;100.00;65101.44;5016336;28;45455;-52
2023/06/11 00:17:43;;;;;;;;;36.00;30.50;;;;;-143.57;100.00;65101.44;5016482;28;45363;-53
2023/06/11 00:20:09;;;;;;;;;35.25;32.00;;;;;-143.57;100.00;65101.44;5016118;28;45497;-52
2023/06/11 00:22:37;;;;;;;;;28.50;28.00;;;;;-143.57;100.00;65101.44;5016091;28;45480;-54
2023/06/11 00:25:03;;;;;;;;;29.50;27.00;;;;;-143.57;100.00;65101.44;5016473;28;45421;-53
2023/06/11 00:27:28;;;;;;;;;35.00;31.25;;;;;-143.57;100.00;65101.44;5015805;28;47404;-50
2023/06/11 00:29:54;;;;;;;;;30.50;24.25;;;;;-143.57;100.00;65101.44;5015864;28;45334;-54
2023/06/11 00:32:19;;;;;;;;;21.00;19.75;;;;;-143.57;100.00;65101.44;5016270;28;45205;-54
2023/06/11 00:34:44;;;;;;;;;30.25;28.75;;;;;-143.57;100.00;65101.44;5015637;28;45695;-54
2023/06/11 00:37:11;;;;;;;;;24.50;21.50;;;;;-143.57;100.00;65101.44;5015812;28;51777;-53
2023/06/11 00:39:36;;;;;;;;;28.00;23.80;;;;;-143.57;100.00;65101.44;5015949;28;45359;-54
2023/06/11 00:42:02;;;;;;;;;29.25;28.00;;;;;-143.57;100.00;65101.44;5016351;28;45399;-53
2023/06/11 00:44:29;;;;;;;;;32.75;30.75;;;;;-143.57;100.00;65101.44;5016199;28;45321;-58
2023/06/11 00:46:57;;;;;;;;;32.00;29.50;;;;;-143.57;100.00;65101.44;5015905;28;46357;-55
2023/06/11 00:49:23;;;;;;;;;28.80;28.20;;;;;-143.57;100.00;65101.44;5014999;28;45331;-54
2023/06/11 00:51:49;;;;;;;;;28.75;26.75;;;;;-143.57;100.00;65101.44;5015821;28;45188;-54
2023/06/11 00:54:18;;;;;;;;;41.50;34.50;;;;;-143.57;100.00;65101.44;5015991;28;45475;-53
2023/06/11 00:56:45;;;;;;;;;34.50;28.75;;;;;-143.57;100.00;65101.44;5015741;28;46125;-48
2023/06/11 00:59:13;;;;;;;;;33.75;30.50;;;;;-143.57;100.00;65101.44;5015708;28;45508;-54
2023/06/11 01:01:45;;;;;;;;;30.50;28.75;;;;;-143.57;100.00;65101.44;5015653;28;45378;-51
2023/06/11 01:04:17;;;;;;;;;39.75;32.75;;;;;-143.57;100.00;65101.44;5016037;28;45407;-55
2023/06/11 01:06:49;;;;;;;;;28.75;24.75;;;;;-143.57;100.00;65101.44;5015524;28;46247;-52
2023/06/11 01:09:17;;;;;;;;;35.00;31.00;;;;;-143.57;100.00;65101.44;5015636;28;45264;-53
2023/06/11 01:11:43;;;;;;;;;33.25;28.25;;;;;-143.57;100.00;65101.44;5015832;28;45522;-54
2023/06/11 01:14:13;;;;;;;;;37.75;31.50;;;;;-143.57;100.00;65101.44;5015457;28;45452;-55
2023/06/11 01:16:45;;;;;;;;;34.25;30.00;;;;;-143.57;100.00;65101.44;5015801;28;45340;-52
2023/06/11 01:19:44;;;;;;;;;34.00;30.00;;;;;-143.57;100.00;65101.44;5019101;28;45382;-55
2023/06/11 01:22:16;;;;;;;;;30.25;29.00;;;;;-143.57;100.00;65101.44;5019176;28;45390;-55
2023/06/11 01:24:57;;;;;;;;;32.75;29.25;;;;;-143.57;100.00;65101.44;5019272;28;45549;-53
2023/06/11 01:27:40;;;;;;;;;35.75;31.50;;;;;-143.57;100.00;65101.44;5018670;28;46104;-53
2023/06/11 01:30:09;;;;;;;;;35.75;32.00;;;;;-143.57;100.00;65101.44;5018593;28;45392;-42
2023/06/11 01:32:36;;;;;;;;;29.25;26.25;;;;;-143.57;100.00;65101.44;5018846;28;45397;-42
2023/06/11 01:35:02;;;;;;;;;27.25;25.75;;;;;-143.57;100.00;65101.44;5019059;28;45399;-43
2023/06/11 01:37:29;;;;;;;;;33.50;31.00;;;;;-143.57;100.00;65101.44;5018633;28;47666;-45
2023/06/11 01:39:55;;;;;;;;;35.50;31.00;;;;;-143.57;100.00;65101.44;5018761;28;45239;-42
2023/06/11 01:42:20;;;;;;;;;32.25;31.50;;;;;-143.57;100.00;65101.44;5018682;28;45319;-56
2023/06/11 01:44:47;;;;;;;;;36.50;30.75;;;;;-143.57;100.00;65101.44;5018291;28;45462;-48
2023/06/11 01:47:13;;;;;;;;;32.50;29.50;;;;;-143.57;100.00;65101.44;5018592;28;47205;-44
2023/06/11 01:49:38;;;;;;;;;33.75;28.75;;;;;-143.57;100.00;65101.44;5000666;28;45493;-44
2023/06/11 01:52:05;;;;;;;;;32.50;30.00;;;;;-143.57;100.00;65101.44;5018798;28;45374;-53
2023/06/11 01:54:31;;;;;;;;;35.75;31.50;;;;;-143.57;100.00;65101.44;5018609;28;45628;-55
2023/06/11 01:56:56;;;;;;;;;33.50;29.50;;;;;-143.57;100.00;65101.44;5018257;28;46039;-45
2023/06/11 01:59:21;;;;;;;;;26.50;26.50;;;;;-143.57;100.00;65101.44;5017320;28;45330;-42
2023/06/11 02:01:52;;;;;;;;;31.50;27.50;;;;;-143.57;100.00;65101.44;5018535;28;45320;-45
2023/06/11 02:04:21;;;;;;;;;35.50;30.00;;;;;-143.57;100.00;65101.44;5018754;28;45501;-43
2023/06/11 02:06:48;;;;;;;;;28.50;27.25;;;;;-143.57;100.00;65101.44;5018181;28;45389;-44
2023/06/11 02:09:13;;;;;;;;;41.33;32.67;;;;;-143.57;100.00;65101.44;5018214;28;45432;-44
2023/06/11 02:11:39;;;;;;;;;33.67;31.33;;;;;-143.57;100.00;65101.44;5018436;28;45419;-53
2023/06/11 02:14:04;;;;;;;;;38.67;34.00;;;;;-143.57;100.00;65101.44;5018242;28;45491;-42
2023/06/11 02:16:30;;;;;;;;;39.33;31.00;;;;;-143.57;100.00;65101.44;5017917;28;46003;-48
2023/06/11 02:18:55;;;;;;;;;31.00;27.75;;;;;-143.57;100.00;65101.44;5017714;28;54169;-44
2023/06/11 02:21:20;;;;;;;;;30.75;29.50;;;;;-143.57;100.00;65101.44;5018308;28;45441;-43
2023/06/11 02:23:46;;;;;;;;;34.75;31.25;;;;;-143.57;100.00;65101.44;5018362;28;45271;-42
2023/06/11 02:26:11;;;;;;;;;33.25;29.25;;;;;-143.57;100.00;65101.44;5018141;28;45386;-43
2023/06/11 02:28:37;;;;;;;;;33.50;30.00;;;;;-143.57;100.00;65101.44;5016917;28;45287;-41
2023/06/11 02:31:02;;;;;;;;;34.25;30.00;;;;;-143.57;100.00;65101.44;5017996;28;45406;-51
2023/06/11 02:33:28;;;;;;;;;21.00;20.75;;;;;-143.57;100.00;65101.44;5018108;28;45308;-54
2023/06/11 02:35:53;;;;;;;;;29.25;27.50;;;;;-143.57;100.00;65101.44;5017901;28;46033;-57
2023/06/11 02:38:18;;;;;;;;;28.75;28.75;;;;;-143.57;100.00;65101.44;5017774;28;48283;-54
2023/06/11 02:40:43;;;;;;;;;32.00;27.75;;;;;-143.57;100.00;65101.44;5017955;28;45964;-52
2023/06/11 02:43:09;;;;;;;;;29.25;28.50;;;;;-143.57;100.00;65101.44;5018158;28;45537;-42
2023/06/11 02:45:35;;;;;;;;;31.25;28.75;;;;;-143.57;100.00;65101.44;5017478;28;45398;-49
2023/06/11 02:48:01;;;;;;;;;31.25;26.50;;;;;-143.57;100.00;65101.44;5017682;28;45327;-54
2023/06/11 02:50:26;;;;;;;;;26.00;22.25;;;;;-143.57;100.00;65101.44;5017807;28;45379;-53
2023/06/11 02:52:51;;;;;;;;;28.50;26.50;;;;;-143.57;100.00;65101.44;5018151;28;45414;-43
2023/06/11 02:55:17;;;;;;;;;32.00;28.00;;;;;-143.57;100.00;65101.44;5016720;28;45758;-42
2023/06/11 02:57:43;;;;;;;;;29.25;25.75;;;;;-143.57;100.00;65101.44;5017619;28;45624;-43
2023/06/11 03:00:10;;;;;;;;;29.25;26.25;;;;;-143.57;100.00;65101.44;5017900;28;45247;-49
2023/06/11 03:02:36;;;;;;;;;32.25;29.00;;;;;-143.57;100.00;65101.44;5016534;28;45488;-55
2023/06/11 03:05:01;;;;;;;;;27.00;24.25;;;;;-143.57;100.00;65101.44;4999731;28;45911;-55
2023/06/11 03:07:26;;;;;;;;;29.75;26.00;;;;;-143.57;100.00;65101.44;5018236;28;45451;-45
2023/06/11 03:09:52;;;;;;;;;27.50;25.00;;;;;-143.57;100.00;65101.44;5018411;28;45426;-45
2023/06/11 03:12:17;;;;;;;;;21.25;20.25;;;;;-143.57;100.00;65101.44;5018699;28;45257;-50
2023/06/11 03:14:43;;;;;;;;;30.00;25.25;;;;;-143.57;100.00;65101.44;5018898;28;46924;-54
2023/06/11 03:17:08;;;;;;;;;25.00;23.25;;;;;-143.57;100.00;65101.44;5000644;28;45763;-55
2023/06/11 03:19:33;;;;;;;;;25.25;23.50;;;;;-143.57;100.00;65101.44;5017339;28;45340;-46
2023/06/11 03:21:58;;;;;;;;;25.75;25.25;;;;;-143.57;100.00;65101.44;5017583;28;45350;-51
2023/06/11 03:24:24;;;;;;;;;28.75;24.75;;;;;-143.57;100.00;65101.44;5016939;28;46000;-52
2023/06/11 03:26:49;;;;;;;;;40.75;32.25;;;;;-143.57;100.00;65101.44;5017055;28;45425;-54
2023/06/11 03:29:15;;;;;;;;;35.00;30.00;;;;;-143.57;100.00;65101.44;5016867;28;45433;-50
2023/06/11 03:31:40;;;;;;;;;34.75;30.25;;;;;-143.57;100.00;65101.44;4998608;28;45511;-54
2023/06/11 03:34:05;;;;;;;;;34.50;31.75;;;;;-143.57;100.00;65101.44;5015642;28;45942;-55
2023/06/11 03:36:31;;;;;;;;;37.00;29.75;;;;;-143.57;100.00;65101.44;5015695;28;45459;-54
2023/06/11 03:38:56;;;;;;;;;30.50;30.00;;;;;-143.57;100.00;65101.44;5015703;28;45362;-52
2023/06/11 03:41:21;;;;;;;;;29.75;29.00;;;;;-143.57;100.00;65101.44;5015560;28;45457;-43
2023/06/11 03:43:47;;;;;;;;;29.75;26.50;;;;;-143.57;100.00;65101.44;5015653;28;45374;-55
2023/06/11 03:46:12;;;;;;;;;40.67;31.00;;;;;-143.57;100.00;65101.44;5015421;28;45557;-55
2023/06/11 03:48:37;;;;;;;;;39.25;32.00;;;;;-143.57;100.00;65101.44;5015775;28;45292;-52
2023/06/11 03:51:03;;;;;;;;;43.00;32.25;;;;;-143.57;100.00;65101.44;5015810;28;45433;-47
2023/06/11 03:53:28;;;;;;;;;37.67;31.67;;;;;-143.57;100.00;65101.44;5015312;28;46101;-43
2023/06/11 03:55:53;;;;;;;;;42.00;32.33;;;;;-143.57;100.00;65101.44;5015644;28;45356;-43
2023/06/11 03:58:19;;;;;;;;;40.67;33.33;;;;;-143.57;100.00;65101.44;5015190;28;45188;-54
2023/06/11 04:00:45;;;;;;;;;33.75;31.00;;;;;-143.57;100.00;65101.44;5015738;28;45360;-55
2023/06/11 04:03:10;;;;;;;;;41.00;32.33;;;;;-143.57;100.00;65101.44;5015042;28;46266;-51
2023/06/11 04:05:36;;;;;;;;;33.25;30.25;;;;;-143.57;100.00;65101.44;5015228;28;45321;-50
2023/06/11 04:08:03;;;;;;;;;30.50;29.50;;;;;-143.57;100.00;65101.44;5015212;28;45511;-52
2023/06/11 04:10:28;;;;;;;;;34.67;31.00;;;;;-143.57;100.00;65101.44;5015490;28;45562;-43
2023/06/11 04:12:53;;;;;;;;;38.00;30.50;;;;;-143.57;100.00;65101.44;5015046;28;45521;-53
2023/06/11 04:15:19;;;;;;;;;30.50;28.75;;;;;-143.57;100.00;65101.44;5014852;28;45440;-53
2023/06/11 04:17:44;;;;;;;;;32.75;29.75;;;;;-143.57;100.00;65101.44;5015964;28;45447;-52
2023/06/11 04:20:10;;;;;;;;;34.00;29.25;;;;;-143.57;100.00;65101.44;5015743;28;45334;-56
2023/06/11 04:22:36;;;;;;;;;30.00;27.50;;;;;-143.57;100.00;65101.44;5015159;28;46819;-52
2023/06/11 04:25:01;;;;;;;;;40.67;33.00;;;;;-143.57;100.00;65101.44;5014198;28;45430;-50
2023/06/11 04:27:28;;;;;;;;;32.00;29.75;;;;;-143.57;100.00;65101.44;5015091;28;45332;-55
2023/06/11 04:29:56;;;;;;;;;34.50;29.50;;;;;-143.57;100.00;65101.44;4997308;28;45375;-49
2023/06/11 04:32:26;;;;;;;;;32.75;30.00;;;;;-143.57;100.00;65101.44;4976235;28;1141191;-54
2023/06/11 04:34:53;;;;;;;;;33.75;30.75;;;;;-143.57;100.00;65101.44;5016689;28;45545;-54
2023/06/11 04:37:19;;;;;;;;;34.25;29.75;;;;;-143.57;100.00;65101.44;5016747;28;45406;-52
2023/06/11 04:39:45;;;;;;;;;31.25;29.25;;;;;-143.57;100.00;65101.44;5016903;28;45203;-44
2023/06/11 04:42:11;;;;;;;;;36.50;30.75;;;;;-143.57;100.00;65101.44;5016404;28;45359;-54
2023/06/11 04:44:38;;;;;;;;;36.50;31.00;;;;;-143.57;100.00;65101.44;5016286;28;45401;-47
2023/06/11 04:47:05;;;;;;;;;32.00;30.25;;;;;-143.57;100.00;65101.44;5016579;28;45452;-43
2023/06/11 04:49:32;;;;;;;;;41.00;31.50;;;;;-143.57;100.00;65101.44;5016600;28;45550;-43
2023/06/11 04:51:58;;;;;;;;;27.25;26.50;;;;;-143.57;100.00;65101.44;4996929;28;47351;-42
2023/06/11 04:54:23;;;;;;;;;32.75;30.00;;;;;-143.57;100.00;65101.44;5015663;28;45429;-52
2023/06/11 04:56:49;;;;;;;;;32.00;30.00;;;;;-143.57;100.00;65101.44;5016100;28;45354;-41
2023/06/11 04:59:15;;;;;;;;;35.75;31.50;;;;;-143.57;100.00;65101.44;5015902;28;45525;-53
2023/06/11 05:01:46;;;;;;;;;40.33;32.00;;;;;-143.57;100.00;65101.44;5015488;28;47084;-55
2023/06/11 05:04:13;;;;;;;;;33.00;30.33;;;;;-143.57;100.00;65101.44;5015720;28;45426;-48
2023/06/11 05:06:44;;;;;;;;;35.75;31.75;;;;;-143.57;100.00;65101.44;5015402;28;45434;-54
2023/06/11 05:09:10;;;;;;;;;31.75;27.50;;;;;-143.57;100.00;65101.44;5015903;28;45397;-44
2023/06/11 05:11:35;;;;;;;;;40.50;32.25;;;;;-143.57;100.00;65101.44;5015551;28;45419;-53
2023/06/11 05:14:03;;;;;;;;;38.33;31.33;;;;;-143.57;100.00;65101.44;5015197;28;45378;-54
2023/06/11 05:16:28;;;;;;;;;33.00;30.00;;;;;-143.57;100.00;65101.44;5015855;28;45470;-54
2023/06/11 05:18:54;;;;;;;;;38.50;28.75;;;;;-143.57;100.00;65101.44;5015764;28;46224;-51
2023/06/11 05:21:19;;;;;;;;;26.50;25.00;;;;;-143.57;100.00;65101.44;5014391;28;45625;-47
2023/06/11 05:23:44;;;;;;;;;35.75;30.25;;;;;-143.57;100.00;65101.44;5015483;28;45438;-49
2023/06/11 05:26:12;;;;;;;;;32.75;29.75;;;;;-143.57;100.00;65101.44;5015481;28;45507;-50
2023/06/11 05:28:38;;;;;;;;;34.75;30.00;;;;;-143.57;100.00;65101.44;5015832;28;45653;-48
2023/06/11 05:31:05;;;;;;;;;27.00;24.25;;;;;-143.57;100.00;65101.44;5014968;28;46387;-52
2023/06/11 05:33:31;;;;;;;;;26.50;25.00;;;;;-143.57;100.00;65101.44;5015184;28;45344;-43
2023/06/11 05:35:56;;;;;;;;;30.75;25.00;;;;;-143.57;100.00;65101.44;5015479;28;45360;-51
2023/06/11 05:38:22;;;;;;;;;30.25;25.50;;;;;-143.57;100.00;65101.44;5015821;28;45421;-56
2023/06/11 05:40:47;;;;;;;;;24.00;24.00;;;;;-143.57;100.00;65101.44;5015323;28;45938;-46
2023/06/11 05:43:13;;;;;;;;;27.50;25.25;;;;;-143.57;100.00;65101.44;5015291;28;45414;-53
2023/06/11 05:45:46;;;;;;;;;29.50;25.25;;;;;-143.57;100.00;65101.44;5015237;28;45414;-46
2023/06/11 05:48:11;;;;;;;;;27.25;24.50;;;;;-143.57;100.00;65101.44;5015315;28;45441;-48
2023/06/11 05:50:37;;;;;;;;;28.25;25.25;;;;;-143.57;100.00;65101.44;4997330;28;45746;-49
2023/06/11 05:53:02;;;;;;;;;31.50;28.50;;;;;-143.57;100.00;65101.44;5014854;28;45369;-55
2023/06/11 05:55:27;;;;;;;;;26.75;25.25;;;;;-143.57;100.00;65101.44;5015001;28;45511;-47
2023/06/11 05:57:53;;;;;;;;;27.75;25.00;;;;;-143.57;100.00;65101.44;5015417;28;45438;-44
2023/06/11 06:00:18;;;;;;;;;28.75;28.25;;;;;-143.57;100.00;65101.44;5014609;28;45988;-45
2023/06/11 06:02:43;;;;;;;;;29.50;26.00;;;;;-143.57;100.00;65101.44;5015666;28;45488;-53
2023/06/11 06:05:09;;;;;;;;;28.75;23.25;;;;;-143.57;100.00;65101.44;5018435;28;45353;-46
2023/06/11 06:07:35;;;;;;;;;27.00;24.00;;;;;-143.57;100.00;65101.44;5018681;28;45341;-54
2023/06/11 06:10:02;;;;;;;;;30.75;24.50;;;;;-143.57;100.00;65101.44;5018101;28;46178;-44
2023/06/11 06:12:27;;;;;;;;;26.00;23.00;;;;;-143.57;100.00;65101.44;5018200;28;45283;-46
2023/06/11 06:14:52;;;;;;;;;22.50;20.75;;;;;-143.57;100.00;65101.44;5018118;28;45464;-44
2023/06/11 06:17:17;;;;;;;;;21.25;19.25;;;;;-143.57;100.00;65101.44;5017962;28;45462;-55
2023/06/11 06:19:43;;;;;;;;;28.75;20.25;;;;;-143.57;100.00;65101.44;5018012;28;46530;-54
2023/06/11 06:22:08;;;;;;;;;27.75;26.25;;;;;-143.57;100.00;65101.44;5017176;28;45381;-48
2023/06/11 06:24:34;;;;;;;;;22.00;20.25;;;;;-143.57;100.00;65101.44;5018191;28;45359;-54
2023/06/11 06:27:00;;;;;;;;;17.75;16.00;;;;;-143.57;100.00;65101.44;5000059;28;45383;-53
2023/06/11 06:29:25;;;;;;;;;21.25;18.25;;;;;-143.57;100.00;65101.44;5017824;28;45315;-54
2023/06/11 06:31:52;;;;;;;;;21.75;18.75;;;;;-143.57;100.00;65101.44;5017416;28;45469;-41
2023/06/11 06:34:17;;;;;;;;;21.20;17.40;;;;;-143.57;100.00;65101.44;5017759;28;45710;-55
2023/06/11 06:36:43;;;;;;;;;23.50;19.50;;;;;-143.57;100.00;65101.44;5017993;28;45318;-49
2023/06/11 06:39:09;;;;;;;;;23.75;16.50;;;;;-143.57;100.00;65101.44;5016114;28;46907;-54
2023/06/11 06:41:34;;;;;;;;;16.60;15.20;;;;;-143.57;100.00;65101.44;5017383;28;45244;-44
2023/06/11 06:43:59;;;;;;;;;13.00;9.50;;;;;-143.57;100.00;65101.44;5017639;28;45901;-54
2023/06/11 06:46:25;;;;;;;;;15.25;15.25;;;;;-143.57;100.00;65101.44;5017195;28;45477;-55
2023/06/11 06:48:53;;;;;;;;;12.00;11.50;;;;;-143.57;100.00;65101.44;5017354;28;45239;-55
2023/06/11 06:51:20;;;;;;;;;13.60;12.60;;;;;-143.57;100.00;65101.44;5017438;28;45369;-52
2023/06/11 06:53:47;;;;;;;;;13.00;12.60;;;;;-143.57;100.00;65101.44;5017361;28;45367;-43
2023/06/11 06:56:13;;;;;;;;;13.00;13.00;;;;;-143.57;100.00;65101.44;5017456;28;45545;-47
2023/06/11 06:58:39;;;;;;;;;14.25;11.25;;;;;-143.57;100.00;65101.44;5017446;28;46280;-43
2023/06/11 07:01:04;;;;;;;;;16.75;12.75;;;;;-143.57;100.00;65101.44;5017106;28;45399;-45
2023/06/11 07:03:30;;;;;;;;;13.00;11.75;;;;;-143.57;100.00;65101.44;5017410;28;45801;-45
2023/06/11 07:05:55;;;;;;;;;14.25;13.00;;;;;-143.57;100.00;65101.44;5017603;28;45375;-56
2023/06/11 07:08:21;;;;;;;;;12.00;12.00;;;;;-143.57;100.00;65101.44;5017338;28;46219;-55
2023/06/11 07:10:53;;;;;;;;;19.25;13.50;;;;;-143.57;100.00;65101.44;5017412;28;45334;-45
2023/06/11 07:13:21;;;;;;;;;16.20;15.80;;;;;-143.57;100.00;65101.44;5017589;28;45455;-52
2023/06/11 07:15:46;;;;;;;;;17.00;13.00;;;;;-143.57;100.00;65101.44;5016494;28;45415;-46
2023/06/11 07:18:12;;;;;;;;;17.50;16.00;;;;;-143.57;100.00;65101.44;5017107;28;46191;-57
2023/06/11 07:20:37;;;;;;;;;15.25;15.25;;;;;-143.57;100.00;65101.44;5017084;28;45464;-54
2023/06/11 07:23:02;;;;;;;;;17.50;15.25;;;;;-143.57;100.00;65101.44;5017153;28;45434;-50
2023/06/11 07:25:28;;;;;;;;;17.00;14.75;;;;;-143.57;100.00;65101.44;5017384;28;45445;-53
2023/06/11 07:27:56;;;;;;;;;16.50;14.25;;;;;-143.57;100.00;65101.44;5016782;28;46186;-46
2023/06/11 07:30:21;;;;;;;;;17.40;15.20;;;;;-143.57;100.00;65101.44;5016241;28;45462;-47
2023/06/11 07:32:47;;;;;;;;;15.25;14.00;;;;;-143.57;100.00;65101.44;5017265;28;45264;-43
2023/06/11 07:35:12;;;;;;;;;17.00;16.25;;;;;-143.57;100.00;65101.44;5017100;28;45545;-58
2023/06/11 07:37:38;;;;;;;;;21.25;19.50;;;;;-143.57;100.00;65101.44;5016139;28;46281;-45
2023/06/11 07:40:05;;;;;;;;;14.25;14.25;;;;;-143.57;100.00;65101.44;4999151;28;45389;-56
2023/06/11 07:42:30;;;;;;;;;20.60;17.00;;;;;-143.57;100.00;65101.44;5016831;28;45422;-47
2023/06/11 07:44:56;;;;;;;;;19.25;19.25;;;;;-143.57;100.00;65101.44;5017047;28;45283;-54
2023/06/11 07:47:21;;;;;;;;;17.25;16.00;;;;;-143.57;100.00;65101.44;5016334;28;46096;-54
2023/06/11 07:49:46;;;;;;;;;18.25;17.25;;;;;-143.57;100.00;65101.44;5015594;28;46257;-56
2023/06/11 07:52:12;;;;;;;;;16.00;16.00;;;;;-143.57;100.00;65101.44;5016676;28;45420;-48
2023/06/11 07:54:38;;;;;;;;;15.75;15.25;;;;;-143.57;100.00;65101.44;5016867;28;45337;-47
2023/06/11 07:57:04;;;;;;;;;15.40;14.60;;;;;-143.57;100.00;65101.44;5015844;28;45733;-43
2023/06/11 07:59:29;;;;;;;;;15.50;15.25;;;;;-143.57;100.00;65101.44;5013990;28;45922;-52
2023/06/11 08:01:55;;;;;;;;;15.50;14.50;;;;;-143.57;100.00;65101.44;5033995;28;45515;-44
2023/06/11 08:04:20;;;;;;;;;20.50;14.50;;;;;-143.57;100.00;65101.44;5016313;28;45559;-53
2023/06/11 08:06:46;;;;;;;;;19.50;17.75;;;;;-143.57;100.00;65101.44;5033768;28;46087;-49
2023/06/11 08:09:11;;;;;;;;;15.25;13.50;;;;;-143.57;100.00;65101.44;5033407;28;45476;-53
2023/06/11 08:27:28;;;;;;;;;14.80;12.60;;;;;29.29;48.84;100936.91;5130641;27;45675;-45
2023/06/11 08:29:53;;;;;;;;;15.00;13.75;;;;;29.22;49.50;100939.06;5113705;27;45568;-48
2023/06/11 08:32:19;;;;;;;;;13.75;13.50;;;;;29.00;49.63;100938.41;5113193;27;45468;-47
2023/06/11 08:34:44;;;;;;;;;16.25;14.75;;;;;28.84;49.99;100931.97;5113162;27;45461;-49
2023/06/11 08:37:10;;;;;;;;;17.50;15.50;;;;;28.74;50.30;100938.19;5113152;27;46147;-43
2023/06/11 08:39:35;;;;;;;;;16.75;16.00;;;;;28.61;50.22;100930.41;5112900;27;45389;-44
2023/06/11 08:42:00;;;;;;;;;20.00;15.25;;;;;28.55;51.08;100931.47;5113103;27;45437;-45
2023/06/11 08:44:26;;;;;;;;;19.25;19.25;;;;;28.54;51.00;100933.41;5113477;27;45446;-44
2023/06/11 08:46:55;;;;;;;;;15.00;15.00;;;;;28.53;51.20;100929.00;5112971;27;46942;-48
2023/06/11 08:49:22;;;;;;;;;16.40;16.40;;;;;28.68;51.13;100927.47;5113062;27;45468;-43
2023/06/11 08:51:48;;;;;;;;;22.80;19.20;;;;;28.80;50.60;100928.09;5113015;27;45381;-43
2023/06/11 08:54:16;;;;;;;;;18.25;15.50;;;;;28.74;51.08;100932.72;5111845;27;45397;-45
2023/06/11 08:56:42;;;;;;;;;19.40;16.40;;;;;28.71;51.03;100933.25;5112241;27;46278;-46
2023/06/11 08:59:08;;;;;;;;;18.60;15.20;;;;;28.72;50.86;100934.06;5112619;27;45492;-44
2023/06/11 09:01:33;;;;;;;;;14.00;13.75;;;;;28.81;50.84;100930.56;5112856;27;45377;-44
2023/06/11 09:04:00;;;;;;;;;15.75;14.75;;;;;29.00;50.29;100932.94;5112883;27;45336;-43
2023/06/11 09:06:27;;;;;;;;;14.80;14.60;;;;;29.15;50.33;100935.72;5112592;27;47047;-43
2023/06/11 09:09:02;;;;;;;;;17.40;15.40;;;;;29.46;49.24;100941.38;5112919;27;45437;-45
2023/06/11 09:11:32;;;;;;;;;16.40;14.80;;;;;29.74;49.10;100935.47;5112662;27;45456;-44
2023/06/11 09:13:57;;;;;;;;;16.00;13.20;;;;;29.78;48.46;100930.25;5113041;27;45370;-45
2023/06/11 09:16:22;;;;;;;;;22.50;20.00;;;;;29.60;48.73;100928.03;5112471;27;45314;-43
2023/06/11 09:18:48;;;;;;;;;20.00;18.00;;;;;29.55;49.44;100934.28;5112440;27;45483;-44
2023/06/11 09:21:13;;;;;;;;;16.25;15.00;;;;;29.64;49.64;100929.13;5112766;27;45484;-46
2023/06/11 09:23:39;;;;;;;;;16.00;16.00;;;;;29.78;48.54;100935.75;5112813;27;45485;-45
2023/06/11 09:26:04;;;;;;;;;18.75;18.75;;;;;29.81;49.17;100941.50;5112281;27;46158;-44
2023/06/11 09:28:35;;;;;;;;;21.00;19.75;;;;;29.74;49.25;100937.38;5098266;27;45387;-45
2023/06/11 09:31:02;;;;;;;;;20.40;18.20;;;;;29.77;48.70;100951.38;5098462;27;45704;-43
2023/06/11 09:33:28;;;;;;;;;21.00;19.40;;;;;29.92;49.20;100942.38;5099428;27;45405;-46
2023/06/11 09:35:54;;;;;;;;;22.80;20.40;;;;;29.96;49.35;100948.97;5098817;27;46081;-44
2023/06/11 09:38:21;;;;;;;;;20.75;19.50;;;;;29.87;48.93;100952.50;5098580;27;45477;-45
2023/06/11 09:40:51;;;;;;;;;18.20;18.00;;;;;29.62;49.36;100959.53;5097862;27;45441;-44
2023/06/11 09:43:22;;;;;;;;;21.20;17.80;;;;;29.41;49.54;100963.25;5098710;27;45251;-45
2023/06/11 09:45:52;;;;;;;;;21.00;17.00;;;;;29.26;49.34;100953.88;5098152;27;46176;-44
2023/06/11 09:48:22;;;;;;;;;21.20;20.40;;;;;29.22;49.84;100962.91;5098549;27;45407;-45
2023/06/11 09:50:53;;;;;;;;;21.20;18.40;;;;;29.03;50.53;100965.25;5098466;27;45306;-46
2023/06/11 09:53:20;;;;;;;;;21.80;21.80;;;;;28.93;50.52;100968.72;5098629;27;45290;-43
2023/06/11 09:55:50;;;;;;;;;19.40;18.80;;;;;28.90;50.95;100976.63;5098374;27;46287;-46
2023/06/11 09:58:24;;;;;;;;;24.00;21.00;;;;;28.85;51.47;100971.94;5098491;27;45248;-43
2023/06/11 10:00:52;;;;;;;;;21.60;19.20;;;;;28.84;50.45;100979.34;5098367;27;45448;-45
2023/06/11 10:03:18;;;;;;;;;24.00;22.20;;;;;28.63;50.69;100963.03;5098563;27;45458;-45
2023/06/11 10:05:43;;;;;;;;;21.25;20.75;;;;;28.68;50.11;100968.53;5096676;27;46795;-46
2023/06/11 10:08:17;;;;;;;;;23.00;20.25;;;;;28.63;50.79;100968.50;5098270;27;45544;-45
2023/06/11 10:10:45;;;;;;;;;22.40;19.40;;;;;28.54;50.99;100968.97;5098640;27;45480;-45
2023/06/11 10:13:11;;;;;;;;;25.60;21.80;;;;;28.48;51.04;100967.25;5098526;27;45675;-45
2023/06/11 10:15:37;;;;;;;;;25.00;22.25;;;;;28.42;51.09;100973.78;5098225;27;46083;-47
2023/06/11 10:18:12;;;;;;;;;17.00;16.00;;;;;28.36;50.58;100974.84;5098481;27;45321;-45
2023/06/11 10:20:51;;;;;;;;;19.00;16.00;;;;;28.32;50.90;100973.69;5096894;27;45346;-45
2023/06/11 10:23:18;;;;;;;;;20.00;17.20;;;;;28.27;50.67;100957.19;5098277;27;45235;-45
2023/06/11 10:25:52;;;;;;;;;23.60;23.60;;;;;28.24;50.82;100963.19;5097577;27;46321;-45
2023/06/11 10:28:17;;;;;;;;;32.20;29.60;;;;;28.39;50.70;100976.22;5097749;27;45354;-45
2023/06/11 10:30:55;;;;;;;;;19.00;18.00;;;;;28.56;50.59;100980.47;5099094;27;45442;-44
2023/06/11 10:33:21;;;;;;;;;19.60;17.40;;;;;28.77;49.54;100986.13;5099111;27;45533;-48
2023/06/11 10:35:46;;;;;;;;;20.50;18.00;;;;;28.82;49.26;100975.19;5099040;27;46050;-47
2023/06/11 10:38:14;;;;;;;;;19.00;18.00;;;;;28.93;49.18;100982.41;5098498;27;45531;-47
2023/06/11 10:40:40;;;;;;;;;20.20;18.40;;;;;28.95;49.52;100985.72;5098905;27;45311;-47
2023/06/11 10:43:15;;;;;;;;;23.50;19.00;;;;;28.84;48.85;100984.00;5099441;27;45424;-47
2023/06/11 10:45:41;;;;;;;;;20.60;19.80;;;;;28.72;49.28;100977.88;5099027;27;46218;-48
2023/06/11 10:48:06;;;;;;;;;23.00;20.00;;;;;28.69;49.79;100983.84;5099138;27;45431;-46
2023/06/11 10:50:32;;;;;;;;;25.00;19.25;;;;;28.72;49.47;100983.34;5099082;27;45265;-47
2023/06/11 10:53:03;;;;;;;;;17.50;17.50;;;;;28.76;49.91;100981.72;5099198;27;45423;-47
2023/06/11 10:55:30;;;;;;;;;23.00;22.60;;;;;28.80;49.72;100983.69;5098886;27;45520;-44
2023/06/11 10:58:00;;;;;;;;;24.60;22.80;;;;;28.85;49.35;100982.88;5098961;27;45324;-49
2023/06/11 11:00:32;;;;;;;;;22.80;20.80;;;;;28.82;49.71;100969.72;5098894;27;45565;-48
2023/06/11 11:02:59;;;;;;;;;22.00;20.00;;;;;28.82;49.26;100956.88;5098986;27;45373;-47
2023/06/11 11:05:28;;;;;;;;;26.00;24.40;;;;;28.99;49.48;100973.19;5098867;27;46395;-46
2023/06/11 11:07:54;;;;;;;;;23.00;22.60;;;;;29.05;49.89;100987.72;5098866;27;45319;-47
2023/06/11 11:10:24;;;;;;;;;24.50;19.50;;;;;29.17;49.64;100982.88;5098692;27;45316;-47